createdAt,value
2023-04-29T00:00:13.844Z,13.19
2023-04-29T00:01:16.026Z,13.19
2023-04-29T00:02:18.239Z,13.18
2023-04-29T00:03:20.481Z,13.18
2023-04-29T00:04:23.059Z,13.17
2023-04-29T00:05:25.790Z,13.18
2023-04-29T00:06:28.242Z,13.17
2023-04-29T00:07:31.231Z,13.16
2023-04-29T00:08:33.329Z,13.16
2023-04-29T00:09:35.501Z,13.16
2023-04-29T00:10:37.982Z,13.15
2023-04-29T00:11:40.262Z,13.16
2023-04-29T00:12:42.833Z,13.16
2023-04-29T00:13:44.892Z,13.15
2023-04-29T00:14:47.310Z,13.14
2023-04-29T00:15:49.866Z,13.14
2023-04-29T00:16:52.127Z,13.13
2023-04-29T00:17:54.364Z,13.13
2023-04-29T00:18:56.757Z,13.12
2023-04-29T00:19:58.915Z,13.11
2023-04-29T00:21:01.511Z,13.10
2023-04-29T00:22:03.630Z,13.10
2023-04-29T00:23:06.064Z,13.09
2023-04-29T00:24:08.497Z,13.08
2023-04-29T00:25:10.880Z,13.07
2023-04-29T00:26:14.010Z,13.07
2023-04-29T00:27:18.143Z,13.07
2023-04-29T00:28:20.542Z,13.07
2023-04-29T00:29:22.894Z,13.06
2023-04-29T00:30:25.060Z,13.04
2023-04-29T00:31:27.818Z,13.04
2023-04-29T00:32:31.283Z,13.04
2023-04-29T00:33:33.552Z,13.04
2023-04-29T00:34:35.665Z,13.04
2023-04-29T00:35:37.848Z,13.03
2023-04-29T00:36:40.209Z,13.02
2023-04-29T00:37:42.485Z,13.02
2023-04-29T00:38:44.683Z,13.02
2023-04-29T00:39:46.961Z,13.01
2023-04-29T00:40:49.447Z,13.00
2023-04-29T00:41:52.135Z,13.00
2023-04-29T00:42:54.181Z,12.99
2023-04-29T00:43:56.466Z,12.99
2023-04-29T00:44:58.868Z,12.98
2023-04-29T00:46:00.978Z,12.97
2023-04-29T00:47:03.682Z,12.97
2023-04-29T00:48:06.636Z,12.96
2023-04-29T00:49:10.398Z,12.96
2023-04-29T00:50:13.231Z,12.96
2023-04-29T00:51:16.687Z,12.95
2023-04-29T00:52:19.402Z,12.95
2023-04-29T00:53:21.546Z,12.94
2023-04-29T00:54:24.245Z,12.93
2023-04-29T00:55:26.996Z,12.94
2023-04-29T00:56:30.110Z,12.93
2023-04-29T00:57:34.310Z,12.92
2023-04-29T00:58:36.601Z,12.92
2023-04-29T00:59:38.874Z,12.92
2023-04-29T01:00:41.122Z,12.92
2023-04-29T01:01:43.672Z,12.92
2023-04-29T01:02:48.192Z,12.91
2023-04-29T01:03:51.224Z,12.90
2023-04-29T01:04:53.946Z,12.89
2023-04-29T01:07:36.245Z,12.99
2023-04-29T01:08:59.816Z,12.83
2023-04-29T01:10:19.920Z,12.86
2023-04-29T01:11:26.579Z,12.87
2023-04-29T01:12:35.279Z,12.86
2023-04-29T01:13:53.251Z,12.84
2023-04-29T01:16:38.345Z,12.94
2023-04-29T01:18:00.892Z,12.76
2023-04-29T01:19:06.827Z,12.77
2023-04-29T01:20:10.864Z,12.76
2023-04-29T01:21:13.190Z,12.77
2023-04-29T01:22:15.574Z,12.74
2023-04-29T01:23:18.422Z,12.75
2023-04-29T01:24:21.042Z,12.73
2023-04-29T01:25:25.476Z,12.73
2023-04-29T01:29:22.696Z,12.77
2023-04-29T01:30:47.473Z,12.62
2023-04-29T01:33:31.143Z,12.80
2023-04-29T01:36:14.570Z,12.77
2023-04-29T01:37:20.763Z,12.59
2023-04-29T01:38:37.400Z,12.61
2023-04-29T01:40:06.475Z,12.61
2023-04-29T01:43:58.772Z,12.70
2023-04-29T01:45:05.663Z,12.55
2023-04-29T01:46:13.132Z,12.57
2023-04-29T01:47:16.312Z,12.59
2023-04-29T01:48:20.723Z,12.59
2023-04-29T01:49:26.856Z,12.58
2023-04-29T01:50:29.419Z,12.58
2023-04-29T01:51:33.447Z,12.58
2023-04-29T01:52:36.305Z,12.56
2023-04-29T01:53:39.082Z,12.57
2023-04-29T01:54:41.156Z,12.56
2023-04-29T01:55:43.541Z,12.54
2023-04-29T01:56:50.649Z,12.55
2023-04-29T01:59:16.774Z,12.65
2023-04-29T02:00:29.557Z,12.47
2023-04-29T02:01:32.093Z,12.47
2023-04-29T02:02:34.591Z,12.47
2023-04-29T02:03:38.878Z,12.48
2023-04-29T02:04:43.527Z,12.47
2023-04-29T02:05:45.898Z,12.48
2023-04-29T02:06:48.166Z,12.47
2023-04-29T02:07:52.182Z,12.47
2023-04-29T02:08:55.407Z,12.47
2023-04-29T02:09:58.669Z,12.46
2023-04-29T02:11:01.005Z,12.46
2023-04-29T02:12:10.646Z,12.46
2023-04-29T02:13:12.737Z,12.44
2023-04-29T02:14:15.206Z,12.44
2023-04-29T02:15:18.412Z,12.42
2023-04-29T02:16:21.062Z,12.42
2023-04-29T02:17:25.209Z,12.41
2023-04-29T02:18:27.755Z,12.41
2023-04-29T02:19:30.026Z,12.39
2023-04-29T02:20:32.197Z,12.40
2023-04-29T02:21:34.446Z,12.40
2023-04-29T02:22:36.642Z,12.38
2023-04-29T02:23:39.532Z,12.37
2023-04-29T02:24:41.778Z,12.37
2023-04-29T02:25:44.025Z,12.37
2023-04-29T02:26:46.553Z,12.37
2023-04-29T02:27:48.718Z,12.35
2023-04-29T02:28:51.593Z,12.35
2023-04-29T02:29:53.940Z,12.35
2023-04-29T02:30:57.074Z,12.35
2023-04-29T02:31:59.270Z,12.32
2023-04-29T02:33:01.567Z,12.32
2023-04-29T02:34:03.649Z,12.32
2023-04-29T02:35:06.613Z,12.31
2023-04-29T02:36:09.918Z,12.31
2023-04-29T02:37:12.687Z,12.31
2023-04-29T02:38:15.709Z,12.31
2023-04-29T02:39:17.817Z,12.28
2023-04-29T02:40:21.000Z,12.28
2023-04-29T02:41:23.278Z,12.28
2023-04-29T02:42:25.921Z,12.27
2023-04-29T02:43:28.075Z,12.27
2023-04-29T02:44:30.342Z,12.27
2023-04-29T02:45:32.708Z,12.27
2023-04-29T02:46:34.911Z,12.26
2023-04-29T02:47:37.738Z,12.25
2023-04-29T02:48:40.056Z,12.24
2023-04-29T02:49:42.208Z,12.24
2023-04-29T02:50:44.461Z,12.23
2023-04-29T02:51:46.841Z,12.22
2023-04-29T02:52:49.135Z,12.22
2023-04-29T02:53:51.649Z,12.21
2023-04-29T02:54:53.817Z,12.21
2023-04-29T02:55:56.128Z,12.20
2023-04-29T02:56:58.727Z,12.20
2023-04-29T02:58:01.459Z,12.20
2023-04-29T02:59:03.453Z,12.18
2023-04-29T03:00:07.611Z,12.18
2023-04-29T03:01:10.065Z,12.17
2023-04-29T03:02:12.471Z,12.18
2023-04-29T03:03:15.574Z,12.17
2023-04-29T03:04:18.198Z,12.18
2023-04-29T03:05:20.546Z,12.17
2023-04-29T03:06:22.823Z,12.18
2023-04-29T03:07:26.050Z,12.17
2023-04-29T03:08:28.725Z,12.18
2023-04-29T03:09:31.315Z,12.17
2023-04-29T03:10:34.039Z,12.18
2023-04-29T03:11:37.966Z,12.18
2023-04-29T03:12:41.326Z,12.19
2023-04-29T03:13:44.730Z,12.18
2023-04-29T03:14:47.193Z,12.16
2023-04-29T03:15:49.478Z,12.16
2023-04-29T03:16:51.693Z,12.17
2023-04-29T03:17:54.049Z,12.16
2023-04-29T03:18:57.095Z,12.17
2023-04-29T03:21:01.120Z,12.18
2023-04-29T03:22:03.545Z,12.19
2023-04-29T03:23:06.491Z,12.19
2023-04-29T03:24:09.255Z,12.19
2023-04-29T03:25:12.778Z,12.19
2023-04-29T03:26:15.167Z,12.20
2023-04-29T03:27:17.998Z,12.19
2023-04-29T03:28:20.414Z,12.19
2023-04-29T03:29:23.333Z,12.21
2023-04-29T03:30:25.648Z,12.21
2023-04-29T03:31:29.779Z,12.20
2023-04-29T03:32:32.709Z,12.20
2023-04-29T03:33:35.019Z,12.21
2023-04-29T03:34:37.300Z,12.20
2023-04-29T03:35:44.643Z,12.22
2023-04-29T03:38:16.744Z,12.32
2023-04-29T03:39:19.626Z,12.17
2023-04-29T03:40:21.920Z,12.19
2023-04-29T03:41:24.626Z,12.20
2023-04-29T03:42:27.194Z,12.21
2023-04-29T03:43:29.469Z,12.22
2023-04-29T03:44:32.436Z,12.22
2023-04-29T03:45:35.003Z,12.22
2023-04-29T03:46:37.812Z,12.21
2023-04-29T03:47:40.753Z,12.23
2023-04-29T03:48:43.052Z,12.22
2023-04-29T03:49:45.679Z,12.22
2023-04-29T03:50:48.005Z,12.21
2023-04-29T03:51:50.393Z,12.22
2023-04-29T03:52:53.676Z,12.22
2023-04-29T03:53:55.817Z,12.21
2023-04-29T03:54:59.988Z,12.22
2023-04-29T03:57:05.564Z,12.21
2023-04-29T03:58:09.774Z,12.22
2023-04-29T03:59:12.005Z,12.22
2023-04-29T04:00:15.942Z,12.21
2023-04-29T04:01:22.821Z,12.22
2023-04-29T04:02:25.458Z,12.21
2023-04-29T04:03:28.170Z,12.22
2023-04-29T04:04:31.665Z,12.23
2023-04-29T04:05:34.347Z,12.21
2023-04-29T04:06:38.431Z,12.21
2023-04-29T04:07:40.712Z,12.21
2023-04-29T04:09:01.648Z,12.21
2023-04-29T04:10:06.174Z,12.22
2023-04-29T04:11:08.325Z,12.22
2023-04-29T04:12:12.204Z,12.22
2023-04-29T04:13:16.447Z,12.21
2023-04-29T04:14:18.783Z,12.21
2023-04-29T04:15:22.077Z,12.21
2023-04-29T04:16:24.879Z,12.23
2023-04-29T04:17:27.543Z,12.24
2023-04-29T04:18:29.761Z,12.24
2023-04-29T04:19:32.109Z,12.25
2023-04-29T04:20:38.478Z,12.23
2023-04-29T04:21:41.322Z,12.24
2023-04-29T04:22:45.283Z,12.24
2023-04-29T04:23:58.396Z,12.25
2023-04-29T04:25:00.868Z,12.26
2023-04-29T04:26:03.142Z,12.25
2023-04-29T04:27:20.841Z,12.26
2023-04-29T04:28:24.448Z,12.26
2023-04-29T04:29:33.178Z,12.26
2023-04-29T04:30:37.268Z,12.27
2023-04-29T04:31:40.870Z,12.27
2023-04-29T04:32:43.515Z,12.27
2023-04-29T04:33:45.741Z,12.28
2023-04-29T04:34:48.800Z,12.30
2023-04-29T04:35:51.098Z,12.31
2023-04-29T04:36:53.265Z,12.31
2023-04-29T04:37:57.813Z,12.31
2023-04-29T04:39:00.446Z,12.32
2023-04-29T04:40:03.039Z,12.34
2023-04-29T04:41:09.894Z,12.35
2023-04-29T04:42:14.419Z,12.37
2023-04-29T04:43:17.161Z,12.37
2023-04-29T04:44:19.336Z,12.38
2023-04-29T04:45:32.405Z,12.39
2023-04-29T04:46:35.166Z,12.39
2023-04-29T04:47:40.531Z,12.42
2023-04-29T04:48:44.654Z,12.43
2023-04-29T04:49:48.323Z,12.43
2023-04-29T04:50:51.126Z,12.44
2023-04-29T04:51:53.984Z,12.45
2023-04-29T04:52:56.885Z,12.47
2023-04-29T04:54:01.065Z,12.48
2023-04-29T04:55:05.132Z,12.48
2023-04-29T04:56:09.549Z,12.52
2023-04-29T04:57:12.464Z,12.53
2023-04-29T04:58:14.718Z,12.54
2023-04-29T04:59:17.374Z,12.57
2023-04-29T05:00:19.784Z,12.58
2023-04-29T05:01:22.252Z,12.59
2023-04-29T05:02:25.085Z,12.61
2023-04-29T05:03:28.087Z,12.63
2023-04-29T05:04:30.648Z,12.64
2023-04-29T05:05:33.524Z,12.68
2023-04-29T05:06:35.721Z,12.72
2023-04-29T05:07:37.906Z,12.79
2023-04-29T05:08:40.569Z,12.97
2023-04-29T05:09:43.760Z,13.49
2023-04-29T05:10:45.946Z,14.29
2023-04-29T05:11:48.499Z,15.15
2023-04-29T05:12:52.937Z,16.01
2023-04-29T05:13:55.581Z,16.82
2023-04-29T05:14:57.836Z,17.50
2023-04-29T05:16:06.512Z,18.06
2023-04-29T05:17:09.371Z,18.54
2023-04-29T05:18:13.206Z,19.16
2023-04-29T05:19:16.215Z,19.70
2023-04-29T05:20:18.860Z,20.27
2023-04-29T05:21:21.449Z,20.77
2023-04-29T05:22:24.314Z,21.20
2023-04-29T05:23:26.599Z,21.56
2023-04-29T05:24:28.920Z,21.75
2023-04-29T05:25:31.614Z,21.75
2023-04-29T05:26:34.507Z,21.71
2023-04-29T05:27:37.977Z,21.70
2023-04-29T05:28:41.286Z,21.68
2023-04-29T05:30:55.187Z,21.75
2023-04-29T05:31:57.540Z,21.48
2023-04-29T05:32:59.673Z,21.41
2023-04-29T05:34:02.922Z,21.29
2023-04-29T05:35:07.534Z,21.19
2023-04-29T05:36:11.216Z,21.13
2023-04-29T05:37:13.524Z,21.07
2023-04-29T05:38:18.618Z,21.12
2023-04-29T05:39:26.195Z,21.22
2023-04-29T05:40:30.359Z,21.32
2023-04-29T05:41:34.913Z,21.37
2023-04-29T05:42:44.608Z,21.45
2023-04-29T05:43:47.275Z,21.53
2023-04-29T05:44:50.959Z,21.64
2023-04-29T05:45:53.270Z,21.67
2023-04-29T05:46:56.030Z,21.78
2023-04-29T05:47:58.793Z,21.89
2023-04-29T05:49:01.180Z,22.03
2023-04-29T05:50:03.959Z,22.12
2023-04-29T05:51:06.707Z,22.17
2023-04-29T05:52:09.064Z,22.14
2023-04-29T05:53:13.273Z,22.03
2023-04-29T05:54:17.179Z,21.80
2023-04-29T05:55:21.181Z,21.59
2023-04-29T05:56:24.606Z,21.39
2023-04-29T05:57:27.172Z,21.18
2023-04-29T05:58:29.361Z,21.03
2023-04-29T05:59:32.388Z,20.86
2023-04-29T06:00:35.938Z,20.67
2023-04-29T06:01:40.161Z,20.52
2023-04-29T06:02:57.513Z,20.35
2023-04-29T06:03:49.560Z,20.17
2023-04-29T06:04:59.826Z,20.01
2023-04-29T06:06:16.357Z,19.86
2023-04-29T06:07:24.063Z,19.71
2023-04-29T06:08:29.756Z,19.55
2023-04-29T06:09:39.934Z,19.40
2023-04-29T06:10:42.269Z,19.26
2023-04-29T06:11:45.976Z,19.14
2023-04-29T06:12:48.720Z,18.99
2023-04-29T06:13:51.075Z,18.87
2023-04-29T06:14:53.307Z,18.77
2023-04-29T06:15:56.134Z,18.65
2023-04-29T06:16:59.428Z,18.57
2023-04-29T06:18:01.889Z,18.45
2023-04-29T06:19:04.636Z,18.36
2023-04-29T06:20:09.049Z,18.27
2023-04-29T06:21:14.540Z,18.20
2023-04-29T06:22:17.787Z,18.10
2023-04-29T06:23:22.343Z,18.02
2023-04-29T06:24:25.061Z,17.92
2023-04-29T06:25:28.643Z,17.85
2023-04-29T06:26:31.479Z,17.79
2023-04-29T06:27:34.490Z,17.73
2023-04-29T06:28:37.775Z,17.71
2023-04-29T06:29:40.702Z,17.68
2023-04-29T06:30:43.316Z,17.63
2023-04-29T06:33:05.205Z,17.69
2023-04-29T06:34:08.235Z,17.49
2023-04-29T06:35:12.321Z,17.49
2023-04-29T06:36:18.954Z,17.47
2023-04-29T06:37:23.738Z,17.45
2023-04-29T06:39:50.687Z,17.51
2023-04-29T06:41:00.939Z,17.33
2023-04-29T06:42:22.816Z,17.34
2023-04-29T06:43:44.066Z,17.33
2023-04-29T06:45:06.425Z,17.32
2023-04-29T06:46:14.954Z,17.30
2023-04-29T06:47:25.855Z,17.28
2023-04-29T06:48:30.308Z,17.25
2023-04-29T06:49:32.592Z,17.24
2023-04-29T06:50:34.826Z,17.21
2023-04-29T06:51:37.870Z,17.18
2023-04-29T06:52:40.689Z,17.18
2023-04-29T06:53:43.021Z,17.16
2023-04-29T06:54:45.502Z,17.15
2023-04-29T06:55:47.770Z,17.14
2023-04-29T06:56:50.116Z,17.12
2023-04-29T06:57:56.188Z,17.11
2023-04-29T06:58:58.829Z,17.07
2023-04-29T07:00:01.144Z,17.04
2023-04-29T07:01:03.489Z,16.99
2023-04-29T07:02:06.118Z,16.96
2023-04-29T07:03:08.895Z,16.93
2023-04-29T07:04:11.519Z,16.90
2023-04-29T07:05:15.815Z,16.85
2023-04-29T07:06:19.063Z,16.81
2023-04-29T07:07:21.848Z,16.78
2023-04-29T07:08:24.040Z,16.77
2023-04-29T07:09:28.054Z,16.77
2023-04-29T07:10:30.354Z,16.79
2023-04-29T07:11:32.536Z,16.82
2023-04-29T07:12:34.675Z,16.91
2023-04-29T07:13:36.833Z,17.00
2023-04-29T07:14:39.331Z,17.11
2023-04-29T07:15:41.389Z,17.25
2023-04-29T07:16:43.773Z,17.38
2023-04-29T07:17:46.312Z,17.52
2023-04-29T07:18:49.178Z,17.66
2023-04-29T07:19:51.613Z,17.82
2023-04-29T07:20:54.141Z,17.96
2023-04-29T07:21:56.691Z,18.11
2023-04-29T07:22:59.110Z,18.24
2023-04-29T07:24:02.856Z,18.38
2023-04-29T07:25:05.393Z,18.52
2023-04-29T07:26:10.243Z,18.64
2023-04-29T07:27:12.681Z,18.76
2023-04-29T07:28:14.759Z,18.89
2023-04-29T07:29:17.055Z,19.02
2023-04-29T07:30:19.617Z,19.14
2023-04-29T07:31:21.880Z,19.26
2023-04-29T07:32:37.655Z,19.37
2023-04-29T07:33:41.037Z,19.47
2023-04-29T07:34:45.544Z,19.62
2023-04-29T07:35:47.770Z,19.72
2023-04-29T07:36:50.564Z,19.82
2023-04-29T07:37:53.299Z,19.92
2023-04-29T07:38:55.489Z,20.02
2023-04-29T07:39:57.768Z,20.12
2023-04-29T07:41:00.682Z,20.22
2023-04-29T07:42:03.007Z,20.31
2023-04-29T07:43:07.417Z,20.40
2023-04-29T07:44:09.512Z,20.48
2023-04-29T07:45:11.796Z,20.58
2023-04-29T07:46:14.251Z,20.67
2023-04-29T07:47:16.557Z,20.75
2023-04-29T07:48:18.741Z,20.85
2023-04-29T07:49:22.552Z,20.96
2023-04-29T07:50:24.997Z,21.02
2023-04-29T07:51:28.202Z,21.12
2023-04-29T07:52:30.440Z,21.21
2023-04-29T07:53:33.083Z,21.30
2023-04-29T07:54:36.154Z,21.40
2023-04-29T07:55:38.382Z,21.49
2023-04-29T07:56:41.048Z,21.58
2023-04-29T07:57:43.170Z,21.69
2023-04-29T07:58:45.623Z,21.79
2023-04-29T07:59:52.844Z,21.92
2023-04-29T08:00:56.121Z,22.04
2023-04-29T08:01:59.176Z,22.16
2023-04-29T08:03:01.717Z,22.24
2023-04-29T08:04:04.037Z,22.30
2023-04-29T08:05:09.106Z,22.37
2023-04-29T08:06:12.297Z,22.43
2023-04-29T08:07:16.747Z,22.47
2023-04-29T08:08:18.985Z,22.51
2023-04-29T08:09:21.305Z,22.57
2023-04-29T08:10:23.972Z,22.59
2023-04-29T08:11:26.938Z,22.63
2023-04-29T08:12:29.940Z,22.65
2023-04-29T08:13:33.354Z,22.70
2023-04-29T08:14:38.601Z,22.74
2023-04-29T08:15:40.769Z,22.76
2023-04-29T08:16:43.077Z,22.78
2023-04-29T08:17:45.594Z,22.79
2023-04-29T08:18:52.986Z,22.82
2023-04-29T08:19:55.312Z,22.86
2023-04-29T08:20:59.947Z,22.90
2023-04-29T08:22:03.316Z,22.92
2023-04-29T08:23:05.796Z,22.93
2023-04-29T08:24:11.325Z,22.93
2023-04-29T08:25:13.413Z,22.93
2023-04-29T08:26:15.818Z,22.95
2023-04-29T08:27:19.122Z,22.94
2023-04-29T08:28:22.025Z,22.93
2023-04-29T08:30:38.873Z,23.03
2023-04-29T08:31:42.797Z,22.88
2023-04-29T08:32:44.986Z,22.91
2023-04-29T08:33:48.034Z,22.93
2023-04-29T08:34:50.305Z,22.94
2023-04-29T08:35:59.743Z,22.95
2023-04-29T08:37:03.070Z,22.97
2023-04-29T08:38:05.969Z,22.99
2023-04-29T08:39:08.997Z,22.97
2023-04-29T08:40:13.376Z,22.98
2023-04-29T08:41:19.750Z,22.98
2023-04-29T08:43:36.512Z,23.12
2023-04-29T08:44:40.755Z,22.97
2023-04-29T08:45:44.030Z,22.99
2023-04-29T08:46:47.364Z,23.03
2023-04-29T08:47:50.436Z,23.05
2023-04-29T08:48:55.931Z,23.06
2023-04-29T08:51:19.248Z,23.19
2023-04-29T08:52:21.236Z,23.06
2023-04-29T08:53:24.008Z,23.09
2023-04-29T08:54:27.058Z,23.10
2023-04-29T08:55:29.470Z,23.10
2023-04-29T08:57:50.105Z,23.24
2023-04-29T08:58:54.502Z,23.09
2023-04-29T08:59:59.110Z,23.12
2023-04-29T09:01:01.845Z,23.13
2023-04-29T09:02:06.007Z,23.14
2023-04-29T09:03:14.812Z,23.14
2023-04-29T09:05:08.606Z,23.16
2023-04-29T09:06:10.996Z,23.17
2023-04-29T09:07:16.188Z,23.19
2023-04-29T09:08:18.798Z,23.19
2023-04-29T09:09:21.124Z,23.19
2023-04-29T09:10:24.285Z,23.21
2023-04-29T09:11:27.549Z,23.21
2023-04-29T09:12:30.407Z,23.21
2023-04-29T09:13:32.705Z,23.22
2023-04-29T09:14:38.035Z,23.22
2023-04-29T09:15:40.092Z,23.22
2023-04-29T09:16:42.318Z,23.21
2023-04-29T09:17:49.062Z,23.21
2023-04-29T09:18:54.344Z,23.21
2023-04-29T09:19:58.711Z,23.21
2023-04-29T09:21:23.979Z,23.20
2023-04-29T09:23:46.118Z,23.30
2023-04-29T09:24:50.688Z,23.15
2023-04-29T09:25:56.795Z,23.14
2023-04-29T09:27:01.019Z,23.13
2023-04-29T09:28:15.127Z,23.14
2023-04-29T09:29:17.758Z,23.13
2023-04-29T09:30:20.530Z,23.13
2023-04-29T09:31:28.861Z,23.12
2023-04-29T09:32:31.464Z,23.12
2023-04-29T09:33:52.961Z,23.10
2023-04-29T09:34:59.255Z,23.10
2023-04-29T09:36:01.664Z,23.06
2023-04-29T09:37:05.066Z,23.01
2023-04-29T09:38:12.295Z,22.97
2023-04-29T09:39:18.547Z,22.93
2023-04-29T09:41:56.591Z,22.97
2023-04-29T09:43:01.170Z,22.78
2023-04-29T09:44:06.775Z,22.76
2023-04-29T09:45:09.940Z,22.73
2023-04-29T09:46:16.098Z,22.70
2023-04-29T09:47:23.067Z,22.69
2023-04-29T09:48:32.212Z,22.65
2023-04-29T09:49:40.607Z,22.62
2023-04-29T09:50:44.155Z,22.60
2023-04-29T09:51:54.732Z,22.56
2023-04-29T09:53:00.716Z,22.54
2023-04-29T09:54:11.109Z,22.52
2023-04-29T09:55:15.895Z,22.48
2023-04-29T09:56:22.411Z,22.46
2023-04-29T09:57:26.473Z,22.42
2023-04-29T09:58:32.528Z,22.39
2023-04-29T09:59:37.794Z,22.38
2023-04-29T10:00:42.444Z,22.34
2023-04-29T10:01:49.265Z,22.32
2023-04-29T10:02:54.077Z,22.29
2023-04-29T10:03:58.905Z,22.25
2023-04-29T10:06:24.320Z,22.30
2023-04-29T10:08:49.243Z,22.22
2023-04-29T10:09:55.931Z,22.05
2023-04-29T10:11:02.629Z,22.04
2023-04-29T10:12:06.682Z,22.01
2023-04-29T10:13:10.184Z,21.99
2023-04-29T10:15:38.587Z,22.07
2023-04-29T10:17:05.902Z,21.87
2023-04-29T10:19:39.872Z,21.96
2023-04-29T10:20:46.756Z,21.76
2023-04-29T10:21:51.055Z,21.75
2023-04-29T10:22:56.208Z,21.74
2023-04-29T10:24:02.995Z,21.70
2023-04-29T10:25:15.948Z,21.69
2023-04-29T10:26:20.851Z,21.66
2023-04-29T10:27:25.532Z,21.64
2023-04-29T10:28:34.811Z,21.61
2023-04-29T10:29:37.974Z,21.57
2023-04-29T10:30:47.099Z,21.55
2023-04-29T10:31:52.373Z,21.53
2023-04-29T10:32:56.919Z,21.51
2023-04-29T10:34:01.441Z,21.47
2023-04-29T10:35:11.215Z,21.45
2023-04-29T10:36:17.788Z,21.43
2023-04-29T10:37:20.227Z,21.39
2023-04-29T10:38:33.872Z,21.38
2023-04-29T10:40:14.990Z,21.37
2023-04-29T10:42:57.190Z,21.45
2023-04-29T10:44:04.150Z,21.26
2023-04-29T10:45:28.794Z,21.26
2023-04-29T10:46:31.148Z,21.24
2023-04-29T10:47:33.557Z,21.22
2023-04-29T10:48:36.833Z,21.20
2023-04-29T10:49:39.026Z,21.17
2023-04-29T10:52:03.675Z,21.23
2023-04-29T10:53:06.386Z,21.03
2023-04-29T10:54:11.803Z,21.01
2023-04-29T10:55:14.571Z,21.00
2023-04-29T10:58:53.076Z,20.95
2023-04-29T10:59:55.241Z,20.93
2023-04-29T11:02:09.544Z,20.98
2023-04-29T11:03:14.257Z,20.80
2023-04-29T11:04:18.434Z,20.80
2023-04-29T11:05:31.743Z,20.77
2023-04-29T11:06:38.757Z,20.76
2023-04-29T11:07:41.095Z,20.73
2023-04-29T11:08:43.177Z,20.71
2023-04-29T11:09:48.882Z,20.67
2023-04-29T11:10:56.100Z,20.65
2023-04-29T11:12:00.915Z,20.62
2023-04-29T11:13:28.844Z,20.60
2023-04-29T11:14:37.719Z,20.56
2023-04-29T11:15:41.018Z,20.55
2023-04-29T11:18:10.618Z,20.60
2023-04-29T11:19:16.232Z,20.40
2023-04-29T11:20:18.548Z,20.39
2023-04-29T11:21:22.123Z,20.36
2023-04-29T11:22:28.016Z,20.35
2023-04-29T11:23:31.716Z,20.32
2023-04-29T11:24:35.743Z,20.28
2023-04-29T11:25:39.608Z,20.25
2023-04-29T11:26:46.535Z,20.22
2023-04-29T11:27:49.119Z,20.20
2023-04-29T11:28:51.459Z,20.18
2023-04-29T11:29:55.547Z,20.16
2023-04-29T11:32:13.851Z,20.21
2023-04-29T11:33:16.406Z,20.02
2023-04-29T11:34:22.191Z,20.01
2023-04-29T11:35:24.861Z,20.00
2023-04-29T11:36:29.084Z,19.98
2023-04-29T11:37:33.178Z,19.97
2023-04-29T11:38:39.049Z,19.96
2023-04-29T11:39:41.334Z,19.95
2023-04-29T11:40:50.459Z,19.93
2023-04-29T11:43:19.410Z,20.02
2023-04-29T11:44:21.736Z,19.85
2023-04-29T11:45:23.952Z,19.85
2023-04-29T11:46:26.855Z,19.84
2023-04-29T11:47:30.555Z,19.84
2023-04-29T11:48:32.883Z,19.82
2023-04-29T11:49:35.488Z,19.81
2023-04-29T11:50:37.687Z,19.79
2023-04-29T11:51:40.236Z,19.75
2023-04-29T11:52:42.438Z,19.75
2023-04-29T11:53:45.271Z,19.72
2023-04-29T11:54:47.588Z,19.69
2023-04-29T11:55:50.429Z,19.70
2023-04-29T11:56:54.236Z,19.68
2023-04-29T11:57:56.781Z,19.67
2023-04-29T11:58:58.725Z,19.67
2023-04-29T12:00:01.013Z,19.65
2023-04-29T12:01:04.826Z,19.66
2023-04-29T12:02:12.378Z,19.64
2023-04-29T12:03:19.411Z,19.63
2023-04-29T12:04:22.526Z,19.62
2023-04-29T12:05:26.728Z,19.62
2023-04-29T12:06:29.723Z,19.61
2023-04-29T12:07:31.941Z,19.60
2023-04-29T12:08:34.551Z,19.59
2023-04-29T12:09:44.168Z,19.57
2023-04-29T12:10:50.076Z,19.56
2023-04-29T12:11:52.656Z,19.53
2023-04-29T12:12:54.847Z,19.53
2023-04-29T12:13:57.327Z,19.51
2023-04-29T12:14:59.494Z,19.51
2023-04-29T12:16:03.145Z,19.51
2023-04-29T12:17:05.534Z,19.51
2023-04-29T12:18:08.689Z,19.48
2023-04-29T12:19:11.608Z,19.49
2023-04-29T12:20:15.297Z,19.48
2023-04-29T12:21:17.485Z,19.47
2023-04-29T12:22:20.050Z,19.46
2023-04-29T12:23:24.247Z,19.46
2023-04-29T12:24:26.457Z,19.46
2023-04-29T12:25:28.672Z,19.44
2023-04-29T12:26:31.346Z,19.43
2023-04-29T12:27:37.665Z,19.43
2023-04-29T12:28:59.396Z,19.43
2023-04-29T12:30:32.557Z,19.40
2023-04-29T12:31:50.387Z,19.40
2023-04-29T12:33:17.331Z,19.39
2023-04-29T12:34:29.016Z,19.39
2023-04-29T12:35:31.299Z,19.38
2023-04-29T12:36:34.474Z,19.36
2023-04-29T12:37:37.272Z,19.36
2023-04-29T12:38:39.639Z,19.36
2023-04-29T12:39:41.785Z,19.34
2023-04-29T12:40:49.061Z,19.34
2023-04-29T12:41:59.905Z,19.32
2023-04-29T12:43:10.122Z,19.32
2023-04-29T12:44:12.508Z,19.31
2023-04-29T12:45:31.389Z,19.31
2023-04-29T12:46:36.606Z,19.30
2023-04-29T12:47:38.944Z,19.30
2023-04-29T12:48:41.727Z,19.30
2023-04-29T12:49:45.619Z,19.32
2023-04-29T12:50:51.191Z,19.31
2023-04-29T12:51:53.408Z,19.34
2023-04-29T12:52:55.489Z,19.35
2023-04-29T12:54:00.250Z,19.37
2023-04-29T12:55:02.499Z,19.38
2023-04-29T12:56:05.691Z,19.40
2023-04-29T12:57:07.854Z,19.40
2023-04-29T12:58:10.038Z,19.41
2023-04-29T12:59:12.420Z,19.41
2023-04-29T13:00:14.744Z,19.42
2023-04-29T13:01:18.640Z,19.42
2023-04-29T13:02:21.503Z,19.43
2023-04-29T13:03:23.903Z,19.42
2023-04-29T13:04:26.271Z,19.42
2023-04-29T13:05:29.079Z,19.43
2023-04-29T13:06:32.641Z,19.41
2023-04-29T13:07:36.971Z,19.42
2023-04-29T13:08:39.965Z,19.42
2023-04-29T13:09:42.019Z,19.42
2023-04-29T13:10:44.268Z,19.41
2023-04-29T13:11:46.393Z,19.39
2023-04-29T13:12:48.564Z,19.41
2023-04-29T13:13:50.651Z,19.40
2023-04-29T13:14:54.614Z,19.39
2023-04-29T13:15:57.322Z,19.41
2023-04-29T13:16:59.750Z,19.40
2023-04-29T13:18:03.406Z,19.40
2023-04-29T13:20:15.276Z,19.54
2023-04-29T13:21:17.680Z,19.38
2023-04-29T13:22:19.756Z,19.39
2023-04-29T13:23:21.938Z,19.40
2023-04-29T13:24:24.190Z,19.40
2023-04-29T13:25:26.944Z,19.40
2023-04-29T13:26:29.489Z,19.40
2023-04-29T13:27:32.124Z,19.41
2023-04-29T13:28:34.586Z,19.41
2023-04-29T13:29:37.464Z,19.41
2023-04-29T13:30:41.660Z,19.41
2023-04-29T13:31:44.566Z,19.42
2023-04-29T13:32:54.026Z,19.41
2023-04-29T13:34:23.326Z,19.41
2023-04-29T13:35:26.346Z,19.41
2023-04-29T13:36:28.842Z,19.42
2023-04-29T13:38:55.651Z,19.50
2023-04-29T13:39:57.619Z,19.34
2023-04-29T13:41:00.376Z,19.38
2023-04-29T13:42:03.308Z,19.43
2023-04-29T13:43:07.252Z,19.51
2023-04-29T13:44:23.673Z,19.59
2023-04-29T13:45:16.775Z,19.61
2023-04-29T13:46:22.823Z,19.63
2023-04-29T13:47:31.312Z,19.65
2023-04-29T13:49:11.409Z,19.66
2023-04-29T13:51:14.016Z,19.66
2023-04-29T13:52:26.263Z,19.67
2023-04-29T13:53:30.532Z,19.67
2023-04-29T13:54:48.176Z,19.68
2023-04-29T13:55:58.712Z,19.67
2023-04-29T13:58:02.984Z,19.67
2023-04-29T13:59:44.377Z,19.67
2023-04-29T14:02:21.697Z,19.67
2023-04-29T14:03:51.331Z,19.65
2023-04-29T14:04:54.669Z,19.63
2023-04-29T14:05:58.304Z,19.63
2023-04-29T14:07:00.879Z,19.61
2023-04-29T14:08:04.017Z,19.61
2023-04-29T14:09:06.357Z,19.62
2023-04-29T14:10:09.103Z,19.60
2023-04-29T14:11:11.578Z,19.60
2023-04-29T14:12:14.027Z,19.61
2023-04-29T14:13:16.325Z,19.61
2023-04-29T14:14:18.840Z,19.60
2023-04-29T14:15:22.887Z,19.60
2023-04-29T14:16:25.491Z,19.60
2023-04-29T14:17:28.156Z,19.58
2023-04-29T14:18:30.449Z,19.59
2023-04-29T14:19:32.632Z,19.60
2023-04-29T14:20:34.901Z,19.60
2023-04-29T14:21:39.241Z,19.60
2023-04-29T14:22:41.562Z,19.61
2023-04-29T14:23:43.930Z,19.60
2023-04-29T14:26:28.230Z,19.60
2023-04-29T14:27:27.126Z,19.60
2023-04-29T14:28:29.680Z,19.60
2023-04-29T14:29:34.001Z,19.59
2023-04-29T14:30:36.691Z,19.59
2023-04-29T14:31:38.932Z,19.59
2023-04-29T14:32:42.045Z,19.59
2023-04-29T14:33:44.221Z,19.59
2023-04-29T14:34:47.866Z,19.59
2023-04-29T14:35:49.855Z,19.59
2023-04-29T14:36:52.142Z,19.59
2023-04-29T14:37:54.218Z,19.61
2023-04-29T14:38:56.833Z,19.60
2023-04-29T14:40:00.154Z,19.59
2023-04-29T14:41:04.032Z,19.58
2023-04-29T14:42:12.451Z,19.57
2023-04-29T14:43:15.810Z,19.57